Time;durP1;ratioP1;P1;durP2;ratioP2;P2;SDS_P1;SDS_P2;PMS_P1;PMS_P2;Temp;Humidity;BMP_temperature;BMP_pressure;BME280_temperature;BME280_humidity;BME280_pressure;Samples;Min_cycle;Max_cycle;Signal;HPM_P1;HPM_P2
2023/09/04 16:20:31;;;;;;;36.78;34.28;;;25.40;99.90;;;;;;6337451;22;20061;-91
2023/09/04 16:24:12;;;;;;;37.15;34.47;;;25.30;99.90;;;;;;6289419;22;20034;-90
2023/09/04 16:31:15;;;;;;;36.13;33.85;;;25.20;99.90;;;;;;6215737;23;20417;-91
2023/09/04 16:34:19;;;;;;;36.10;33.53;;;25.10;99.90;;;;;;6189994;23;20430;-91
2023/09/04 16:38:13;;;;;;;36.28;33.63;;;25.00;99.90;;;;;;6195563;23;20059;-92
2023/09/04 16:40:59;;;;;;;35.05;32.85;;;24.90;99.90;;;;;;6215248;23;20036;-90
2023/09/04 16:43:49;;;;;;;36.75;33.50;;;24.80;99.90;;;;;;6169709;23;20059;-84
2023/09/04 16:46:15;;;;;;;35.45;32.97;;;24.70;99.90;;;;;;6188284;23;20009;-84
2023/09/04 16:48:43;;;;;;;34.95;32.75;;;24.70;99.90;;;;;;6212931;23;20004;-84
2023/09/04 16:51:10;;;;;;;35.50;33.10;;;24.70;99.90;;;;;;6188964;23;20020;-85
2023/09/04 16:53:36;;;;;;;35.67;32.95;;;24.60;99.90;;;;;;6186655;23;20504;-85
2023/09/04 16:56:06;;;;;;;34.47;32.28;;;24.60;99.90;;;;;;6188567;23;20470;-85
2023/09/04 16:58:33;;;;;;;34.58;32.28;;;24.50;99.90;;;;;;6188816;23;20366;-85
2023/09/04 17:01:02;;;;;;;35.40;32.92;;;24.50;99.90;;;;;;6188682;23;20420;-84
2023/09/04 17:03:32;;;;;;;34.38;31.92;;;24.40;99.90;;;;;;6272042;22;20015;-85
2023/09/04 17:05:59;;;;;;;34.05;31.45;;;24.40;99.90;;;;;;6281013;22;19999;-85
2023/09/04 17:08:25;;;;;;;33.05;30.85;;;24.40;99.90;;;;;;6255528;22;20010;-86
2023/09/04 17:10:52;;;;;;;33.10;30.85;;;24.20;99.90;;;;;;6254877;22;20019;-85
2023/09/04 17:13:18;;;;;;;32.17;30.02;;;24.20;99.90;;;;;;6281564;22;20109;-84
2023/09/04 17:15:46;;;;;;;32.20;29.73;;;24.10;99.90;;;;;;6281142;22;20007;-85
2023/09/04 17:18:13;;;;;;;33.42;30.25;;;24.00;99.90;;;;;;6280850;22;20011;-85
2023/09/04 17:20:39;;;;;;;33.58;31.00;;;24.00;99.90;;;;;;6279802;22;20018;-86
2023/09/04 17:23:07;;;;;;;32.88;30.52;;;24.00;99.90;;;;;;6286868;22;20010;-85
2023/09/04 17:25:38;;;;;;;31.80;29.42;;;23.90;99.90;;;;;;6286446;22;20010;-85
2023/09/04 17:28:05;;;;;;;31.58;29.38;;;23.90;99.90;;;;;;6312358;22;20006;-85
2023/09/04 17:30:31;;;;;;;31.35;29.15;;;23.90;99.90;;;;;;6286251;22;20343;-84
2023/09/04 17:32:59;;;;;;;30.55;28.73;;;23.90;99.90;;;;;;6286111;22;20002;-83
2023/09/04 17:35:26;;;;;;;31.35;29.10;;;23.80;99.90;;;;;;6285986;22;20007;-83
2023/09/04 17:37:52;;;;;;;31.58;29.23;;;23.80;99.90;;;;;;6285832;22;20048;-83
2023/09/04 17:40:18;;;;;;;30.95;28.77;;;23.70;99.90;;;;;;6285971;22;20011;-84
2023/09/04 17:42:45;;;;;;;31.13;28.90;;;23.70;99.90;;;;;;6311727;22;20030;-84
2023/09/04 17:45:11;;;;;;;29.90;27.90;;;23.70;99.90;;;;;;6339416;22;20003;-84
2023/09/04 17:47:38;;;;;;;30.80;28.25;;;23.70;99.90;;;;;;6286247;22;20010;-85
2023/09/04 17:50:04;;;;;;;30.00;28.20;;;23.70;99.90;;;;;;6285873;22;20366;-85
2023/09/04 17:52:31;;;;;;;30.73;28.50;;;23.60;99.90;;;;;;6285962;22;20348;-85
2023/09/04 17:54:57;;;;;;;30.48;28.25;;;23.60;99.90;;;;;;6313407;22;19995;-89
2023/09/04 17:57:24;;;;;;;30.30;28.13;;;23.50;99.90;;;;;;6286710;22;20011;-88
2023/09/04 17:59:50;;;;;;;30.13;27.60;;;23.50;99.90;;;;;;6286886;22;20002;-90
2023/09/04 18:02:16;;;;;;;29.30;27.08;;;23.50;99.90;;;;;;6286422;22;20030;-90
2023/09/04 18:04:42;;;;;;;28.83;26.92;;;23.40;99.90;;;;;;6286669;22;20335;-87
2023/09/04 18:07:09;;;;;;;28.88;26.60;;;23.30;99.90;;;;;;6286693;22;20011;-88
2023/09/04 18:09:39;;;;;;;29.05;26.38;;;23.30;99.90;;;;;;6286818;22;20140;-89
2023/09/04 18:12:07;;;;;;;28.98;26.55;;;23.30;99.90;;;;;;6286895;22;20455;-89
2023/09/04 18:14:34;;;;;;;29.05;26.65;;;23.30;99.90;;;;;;6287001;22;20010;-86
2023/09/04 18:17:00;;;;;;;28.75;26.60;;;23.30;99.90;;;;;;6288449;22;20011;-88
2023/09/04 18:19:27;;;;;;;29.55;27.25;;;23.30;99.90;;;;;;6281014;22;20019;-90
2023/09/04 18:21:53;;;;;;;28.33;26.35;;;23.40;99.90;;;;;;6255844;22;20011;-88
2023/09/04 18:24:20;;;;;;;29.25;27.15;;;23.30;99.90;;;;;;6281758;22;20146;-88
2023/09/04 18:26:50;;;;;;;29.25;27.13;;;23.30;99.90;;;;;;6255689;22;20378;-87
2023/09/04 18:29:19;;;;;;;29.52;27.15;;;23.30;99.90;;;;;;6255511;22;20089;-88
2023/09/04 18:31:46;;;;;;;28.80;26.98;;;23.30;99.90;;;;;;6281376;22;20007;-88
2023/09/04 18:34:12;;;;;;;30.08;27.70;;;23.30;99.90;;;;;;6255928;22;20010;-88
2023/09/04 18:36:39;;;;;;;29.50;27.38;;;23.20;99.90;;;;;;6255617;22;20008;-88
2023/09/04 18:39:06;;;;;;;29.52;27.20;;;23.20;99.90;;;;;;6255840;22;20007;-89
2023/09/04 18:41:32;;;;;;;28.73;26.83;;;23.10;99.90;;;;;;6257648;22;20011;-89
2023/09/04 18:43:59;;;;;;;29.25;26.92;;;23.10;99.90;;;;;;6258142;22;20014;-87
2023/09/04 18:46:25;;;;;;;28.77;26.73;;;23.10;99.90;;;;;;6283677;22;20428;-90
2023/09/04 18:48:53;;;;;;;28.38;26.20;;;23.10;99.90;;;;;;6257812;22;20003;-88
2023/09/04 18:51:20;;;;;;;27.98;26.08;;;23.00;99.90;;;;;;6282952;22;20011;-90
2023/09/04 18:53:53;;;;;;;27.75;25.58;;;23.10;99.90;;;;;;6258083;22;20455;-90
2023/09/04 18:56:19;;;;;;;27.50;25.50;;;23.10;99.90;;;;;;6258674;22;20007;-91
2023/09/04 18:58:46;;;;;;;28.10;25.45;;;23.10;99.90;;;;;;6258661;22;20432;-89
2023/09/04 19:01:12;;;;;;;27.67;25.58;;;23.10;99.90;;;;;;6257814;22;20007;-91
2023/09/04 19:03:39;;;;;;;27.95;25.30;;;23.10;99.90;;;;;;6257191;22;20011;-88
2023/09/04 19:06:06;;;;;;;27.20;24.90;;;23.20;99.90;;;;;;6257550;22;20083;-87
2023/09/04 19:08:33;;;;;;;26.77;24.92;;;23.10;99.90;;;;;;6256575;22;20475;-84
2023/09/04 19:11:00;;;;;;;27.00;25.00;;;23.10;99.90;;;;;;6283014;22;20041;-86
2023/09/04 19:13:27;;;;;;;27.85;25.40;;;23.10;99.90;;;;;;6282749;22;19999;-86
2023/09/04 19:15:53;;;;;;;25.85;24.05;;;23.00;99.90;;;;;;6257299;22;20345;-85
2023/09/04 19:18:20;;;;;;;26.67;24.42;;;23.00;99.90;;;;;;6282575;22;20331;-87
2023/09/04 19:20:48;;;;;;;26.05;23.92;;;23.00;99.90;;;;;;6274048;22;20086;-87
2023/09/04 19:23:14;;;;;;;25.42;23.42;;;23.00;99.90;;;;;;6257128;22;20086;-86
2023/09/04 19:25:41;;;;;;;25.27;23.25;;;22.90;99.90;;;;;;6257396;22;20007;-88
2023/09/04 19:28:26;;;;;;;25.63;23.52;;;22.90;99.90;;;;;;6257307;22;20057;-88
2023/09/04 19:30:52;;;;;;;26.02;23.52;;;22.80;99.90;;;;;;6257562;22;20016;-88
2023/09/04 19:33:19;;;;;;;25.20;23.02;;;22.80;99.90;;;;;;6257376;22;20008;-90
2023/09/04 19:35:46;;;;;;;24.15;22.27;;;22.80;99.90;;;;;;6258176;22;20432;-86
2023/09/04 19:38:13;;;;;;;25.23;22.90;;;22.70;99.90;;;;;;6257373;22;20004;-90
2023/09/04 19:40:39;;;;;;;24.98;22.98;;;22.60;99.90;;;;;;6257058;22;20011;-89
2023/09/04 19:43:06;;;;;;;25.20;22.95;;;22.60;99.90;;;;;;6257160;22;20082;-89
2023/09/04 19:45:32;;;;;;;25.40;23.13;;;22.60;99.90;;;;;;6257142;22;20460;-91
2023/09/04 19:47:59;;;;;;;25.17;23.27;;;22.50;99.90;;;;;;6257169;22;20010;-89
2023/09/04 19:50:25;;;;;;;25.48;23.50;;;22.50;99.90;;;;;;6256986;22;20084;-90
2023/09/04 19:52:52;;;;;;;25.30;23.08;;;22.50;99.90;;;;;;6257263;22;20056;-90
2023/09/04 19:55:19;;;;;;;25.15;22.98;;;22.50;99.90;;;;;;6282734;22;20019;-93
2023/09/04 19:57:45;;;;;;;24.73;22.88;;;22.40;99.90;;;;;;6257253;22;20007;-89
2023/09/04 20:00:15;;;;;;;24.15;22.52;;;22.40;99.90;;;;;;6258280;22;20504;-92
2023/09/04 20:02:45;;;;;;;25.67;23.33;;;22.30;99.90;;;;;;6258045;22;20004;-94
2023/09/04 20:05:11;;;;;;;25.00;23.10;;;22.40;99.90;;;;;;6257083;22;20007;-91
2023/09/04 20:07:39;;;;;;;25.85;23.67;;;22.30;99.90;;;;;;6256815;22;20090;-92
2023/09/04 20:10:11;;;;;;;25.92;23.65;;;22.30;99.90;;;;;;6258450;22;20427;-92
2023/09/04 20:12:40;;;;;;;25.90;23.75;;;22.30;99.90;;;;;;6259762;22;20011;-90
2023/09/04 20:15:08;;;;;;;25.25;23.38;;;22.20;99.90;;;;;;6258386;22;19999;-90
2023/09/04 20:17:34;;;;;;;25.15;23.30;;;22.20;99.90;;;;;;6257702;22;20012;-91
2023/09/04 20:20:04;;;;;;;25.95;23.52;;;22.30;99.90;;;;;;6265706;22;20340;-92
2023/09/04 20:22:34;;;;;;;26.05;23.80;;;22.20;99.90;;;;;;6282838;22;20030;-91
2023/09/04 20:28:00;;;;;;;26.20;24.17;;;22.20;99.90;;;;;;6283512;22;20019;-89
2023/09/04 20:30:36;;;;;;;26.85;24.58;;;22.10;99.90;;;;;;6283196;22;20029;-91
2023/09/04 20:33:04;;;;;;;25.60;23.55;;;22.10;99.90;;;;;;6257509;22;20007;-92
2023/09/04 20:35:31;;;;;;;27.02;24.83;;;22.10;99.90;;;;;;6289876;22;20004;-92
2023/09/04 20:37:58;;;;;;;26.17;24.38;;;22.10;99.90;;;;;;6265474;22;20436;-92
2023/09/04 20:40:25;;;;;;;26.40;24.52;;;22.10;99.90;;;;;;6292041;22;20007;-91
2023/09/04 20:42:54;;;;;;;25.52;23.55;;;22.10;99.90;;;;;;6210648;22;20020;-91
2023/09/04 20:45:22;;;;;;;25.33;23.42;;;22.10;99.90;;;;;;6259699;22;20060;-92
2023/09/04 20:47:49;;;;;;;26.15;24.00;;;22.10;99.90;;;;;;6260125;22;20004;-91
2023/09/04 20:50:15;;;;;;;25.73;23.63;;;22.10;99.90;;;;;;6260150;22;20337;-92
2023/09/04 20:52:42;;;;;;;25.40;23.70;;;22.10;99.90;;;;;;6259222;22;20007;-92
2023/09/04 20:55:08;;;;;;;26.27;24.10;;;22.10;99.90;;;;;;6258261;22;20079;-92
2023/09/04 20:57:36;;;;;;;25.88;24.02;;;22.10;99.90;;;;;;6258524;22;20015;-93
2023/09/04 21:00:03;;;;;;;24.88;23.23;;;22.10;99.90;;;;;;6257017;22;20083;-93
2023/09/04 21:02:29;;;;;;;26.83;24.13;;;22.10;99.90;;;;;;6229343;22;20090;-92
2023/09/04 21:04:58;;;;;;;25.67;23.67;;;22.10;99.90;;;;;;6256449;22;20004;-93
2023/09/04 23:22:29;;;;;;;26.48;24.45;;;21.90;99.90;;;;;;6281819;22;19906;-82
2023/09/04 23:24:57;;;;;;;26.60;24.70;;;21.80;99.90;;;;;;6256233;22;20015;-81
2023/09/04 23:27:28;;;;;;;27.40;25.05;;;21.80;99.90;;;;;;6309119;22;20006;-81
2023/09/04 23:29:56;;;;;;;26.55;24.70;;;21.80;99.90;;;;;;6309074;22;20015;-82
2023/09/04 23:32:38;;;;;;;26.77;24.70;;;21.80;99.90;;;;;;6309474;22;19995;-82
2023/09/04 23:35:27;;;;;;;26.75;24.83;;;21.80;99.90;;;;;;6309559;22;20011;-82
2023/09/04 23:38:05;;;;;;;27.02;24.92;;;21.80;99.90;;;;;;6281341;22;20033;-81
2023/09/04 23:46:03;;;;;;;26.80;24.55;;;21.80;99.90;;;;;;6281528;22;20077;-81
2023/09/04 23:48:29;;;;;;;27.40;25.17;;;21.70;99.90;;;;;;6281554;22;19999;-82
2023/09/04 23:50:57;;;;;;;27.00;24.88;;;21.70;99.90;;;;;;6256007;22;20076;-82
2023/09/04 23:53:25;;;;;;;26.90;24.90;;;21.70;99.90;;;;;;6281573;22;19996;-82
2023/09/04 23:55:54;;;;;;;26.67;24.70;;;21.70;99.90;;;;;;6255961;22;20011;-81
2023/09/04 23:58:20;;;;;;;26.33;24.50;;;21.70;99.90;;;;;;6256081;22;19999;-81
